sensor_id;sensor_type;location;lat;lon;timestamp;temperature;humidity
20795;DHT22;28087;-33.874;151.240;2023-08-20T00:06:24;21.30;49.30
20795;DHT22;28087;-33.874;151.240;2023-08-20T00:09:33;21.60;49.10
20795;DHT22;28087;-33.874;151.240;2023-08-20T00:12:39;21.70;48.80
20795;DHT22;28087;-33.874;151.240;2023-08-20T00:15:52;21.90;47.50
20795;DHT22;28087;-33.874;151.240;2023-08-20T00:19:01;22.00;46.60
20795;DHT22;28087;-33.874;151.240;2023-08-20T00:22:16;22.20;46.10
20795;DHT22;28087;-33.874;151.240;2023-08-20T02:17:05;23.70;42.40
20795;DHT22;28087;-33.874;151.240;2023-08-20T02:20:12;23.90;42.10
20795;DHT22;28087;-33.874;151.240;2023-08-20T02:23:23;23.90;41.60
20795;DHT22;28087;-33.874;151.240;2023-08-20T02:26:32;23.90;40.30
20795;DHT22;28087;-33.874;151.240;2023-08-20T02:29:42;23.70;41.00
20795;DHT22;28087;-33.874;151.240;2023-08-20T02:32:55;23.90;40.90
20795;DHT22;28087;-33.874;151.240;2023-08-20T02:36:10;24.00;40.60
20795;DHT22;28087;-33.874;151.240;2023-08-20T02:39:21;24.10;40.60
20795;DHT22;28087;-33.874;151.240;2023-08-20T02:42:34;23.80;39.90
20795;DHT22;28087;-33.874;151.240;2023-08-20T02:45:47;23.60;40.30
20795;DHT22;28087;-33.874;151.240;2023-08-20T02:48:57;23.80;40.30
20795;DHT22;28087;-33.874;151.240;2023-08-20T02:52:09;24.00;40.30
20795;DHT22;28087;-33.874;151.240;2023-08-20T02:55:22;23.90;40.20
20795;DHT22;28087;-33.874;151.240;2023-08-20T02:58:37;23.90;40.10
20795;DHT22;28087;-33.874;151.240;2023-08-20T03:01:51;23.60;40.80
20795;DHT22;28087;-33.874;151.240;2023-08-20T03:05:03;23.60;40.60
20795;DHT22;28087;-33.874;151.240;2023-08-20T03:08:16;23.20;41.00
20795;DHT22;28087;-33.874;151.240;2023-08-20T03:11:27;23.10;41.10
20795;DHT22;28087;-33.874;151.240;2023-08-20T03:14:37;23.10;41.20
20795;DHT22;28087;-33.874;151.240;2023-08-20T03:17:57;23.40;41.00
20795;DHT22;28087;-33.874;151.240;2023-08-20T03:21:17;23.60;41.10
20795;DHT22;28087;-33.874;151.240;2023-08-20T03:27:31;0.00;0.00
20795;DHT22;28087;-33.874;151.240;2023-08-20T03:37:05;0.00;0.00
20795;DHT22;28087;-33.874;151.240;2023-08-20T03:49:40;23.50;41.70
20795;DHT22;28087;-33.874;151.240;2023-08-20T03:52:50;23.50;42.20
20795;DHT22;28087;-33.874;151.240;2023-08-20T03:55:59;23.80;41.70
20795;DHT22;28087;-33.874;151.240;2023-08-20T03:59:07;23.90;40.40
20795;DHT22;28087;-33.874;151.240;2023-08-20T04:02:15;23.60;40.70
20795;DHT22;28087;-33.874;151.240;2023-08-20T04:05:27;23.30;41.40
20795;DHT22;28087;-33.874;151.240;2023-08-20T04:08:41;23.50;41.00
20795;DHT22;28087;-33.874;151.240;2023-08-20T04:11:54;23.50;41.00
20795;DHT22;28087;-33.874;151.240;2023-08-20T04:15:08;24.00;41.20
20795;DHT22;28087;-33.874;151.240;2023-08-20T04:18:16;23.90;39.70
20795;DHT22;28087;-33.874;151.240;2023-08-20T04:21:30;23.80;39.40
20795;DHT22;28087;-33.874;151.240;2023-08-20T19:08:38;16.20;75.00
20795;DHT22;28087;-33.874;151.240;2023-08-20T19:11:47;16.30;74.10
20795;DHT22;28087;-33.874;151.240;2023-08-20T19:14:57;16.40;74.00
20795;DHT22;28087;-33.874;151.240;2023-08-20T19:18:06;16.50;73.90
20795;DHT22;28087;-33.874;151.240;2023-08-20T19:21:16;16.40;73.90
20795;DHT22;28087;-33.874;151.240;2023-08-20T19:24:24;16.60;73.70
20795;DHT22;28087;-33.874;151.240;2023-08-20T19:27:32;16.50;73.50
20795;DHT22;28087;-33.874;151.240;2023-08-20T19:30:46;16.40;73.40
20795;DHT22;28087;-33.874;151.240;2023-08-20T19:33:55;16.40;72.40
20795;DHT22;28087;-33.874;151.240;2023-08-20T19:37:05;16.30;71.90
20795;DHT22;28087;-33.874;151.240;2023-08-20T19:40:14;16.30;70.90
20795;DHT22;28087;-33.874;151.240;2023-08-20T19:43:21;16.20;70.00
20795;DHT22;28087;-33.874;151.240;2023-08-20T19:46:31;16.20;69.90
20795;DHT22;28087;-33.874;151.240;2023-08-20T19:49:41;16.10;69.50
20795;DHT22;28087;-33.874;151.240;2023-08-20T19:52:49;16.10;69.00
20795;DHT22;28087;-33.874;151.240;2023-08-20T19:55:57;16.10;68.70
20795;DHT22;28087;-33.874;151.240;2023-08-20T19:59:07;16.10;68.80
20795;DHT22;28087;-33.874;151.240;2023-08-20T20:02:16;16.10;68.90
20795;DHT22;28087;-33.874;151.240;2023-08-20T20:05:22;16.10;67.80
20795;DHT22;28087;-33.874;151.240;2023-08-20T20:08:30;16.10;66.90
20795;DHT22;28087;-33.874;151.240;2023-08-20T20:11:39;16.00;67.00
20795;DHT22;28087;-33.874;151.240;2023-08-20T20:14:46;16.00;67.50
20795;DHT22;28087;-33.874;151.240;2023-08-20T20:17:56;16.00;67.10
20795;DHT22;28087;-33.874;151.240;2023-08-20T20:21:03;16.10;66.70
20795;DHT22;28087;-33.874;151.240;2023-08-20T20:24:10;16.00;66.90
20795;DHT22;28087;-33.874;151.240;2023-08-20T20:27:18;15.90;66.30
20795;DHT22;28087;-33.874;151.240;2023-08-20T20:30:24;16.00;66.70
20795;DHT22;28087;-33.874;151.240;2023-08-20T20:33:35;16.00;66.80
20795;DHT22;28087;-33.874;151.240;2023-08-20T20:36:43;15.90;66.60
20795;DHT22;28087;-33.874;151.240;2023-08-20T20:39:50;15.90;66.70
20795;DHT22;28087;-33.874;151.240;2023-08-20T20:42:59;15.90;66.80
20795;DHT22;28087;-33.874;151.240;2023-08-20T20:46:08;15.90;66.70
20795;DHT22;28087;-33.874;151.240;2023-08-20T20:49:17;15.90;66.40
20795;DHT22;28087;-33.874;151.240;2023-08-20T20:52:28;16.10;66.10
20795;DHT22;28087;-33.874;151.240;2023-08-20T20:55:37;16.20;65.50
20795;DHT22;28087;-33.874;151.240;2023-08-20T20:58:46;16.70;64.50
20795;DHT22;28087;-33.874;151.240;2023-08-20T21:01:53;16.80;63.70
20795;DHT22;28087;-33.874;151.240;2023-08-20T21:05:04;16.80;63.90
20795;DHT22;28087;-33.874;151.240;2023-08-20T21:08:13;16.80;64.00
20795;DHT22;28087;-33.874;151.240;2023-08-20T21:11:22;16.70;64.30
20795;DHT22;28087;-33.874;151.240;2023-08-20T21:14:31;16.80;64.30
20795;DHT22;28087;-33.874;151.240;2023-08-20T21:17:39;16.70;64.40
20795;DHT22;28087;-33.874;151.240;2023-08-20T21:20:50;16.70;64.50
20795;DHT22;28087;-33.874;151.240;2023-08-20T21:24:00;17.00;64.00
20795;DHT22;28087;-33.874;151.240;2023-08-20T21:27:08;17.10;63.60
20795;DHT22;28087;-33.874;151.240;2023-08-20T21:30:18;17.00;63.70
20795;DHT22;28087;-33.874;151.240;2023-08-20T21:33:30;17.00;63.30
20795;DHT22;28087;-33.874;151.240;2023-08-20T21:36:45;16.90;63.20
20795;DHT22;28087;-33.874;151.240;2023-08-20T21:39:54;16.80;63.40
20795;DHT22;28087;-33.874;151.240;2023-08-20T21:43:03;16.90;63.70
20795;DHT22;28087;-33.874;151.240;2023-08-20T21:46:17;17.00;63.70
20795;DHT22;28087;-33.874;151.240;2023-08-20T21:49:28;17.10;63.00
